sensor_id;sensor_type;location;lat;lon;timestamp;P1;durP1;ratioP1;P2;durP2;ratioP2
15764;SDS011;7983;50.744;7.086;2023-03-01T00:01:05;5.70;;;4.33;;
15764;SDS011;7983;50.744;7.086;2023-03-01T00:03:37;6.57;;;4.07;;
15764;SDS011;7983;50.744;7.086;2023-03-01T00:06:03;5.90;;;4.10;;
15764;SDS011;7983;50.744;7.086;2023-03-01T00:08:30;6.13;;;3.87;;
15764;SDS011;7983;50.744;7.086;2023-03-01T00:11:05;4.67;;;3.63;;
15764;SDS011;7983;50.744;7.086;2023-03-01T00:13:39;5.77;;;4.10;;
15764;SDS011;7983;50.744;7.086;2023-03-01T00:16:07;4.47;;;3.60;;
15764;SDS011;7983;50.744;7.086;2023-03-01T00:18:35;5.10;;;3.87;;
15764;SDS011;7983;50.744;7.086;2023-03-01T00:21:03;4.83;;;3.80;;
15764;SDS011;7983;50.744;7.086;2023-03-01T00:23:33;6.13;;;4.37;;
15764;SDS011;7983;50.744;7.086;2023-03-01T00:25:59;6.83;;;5.10;;
15764;SDS011;7983;50.744;7.086;2023-03-01T00:28:25;6.50;;;5.00;;
15764;SDS011;7983;50.744;7.086;2023-03-01T00:30:50;7.53;;;5.60;;
15764;SDS011;7983;50.744;7.086;2023-03-01T00:33:16;8.83;;;5.57;;
15764;SDS011;7983;50.744;7.086;2023-03-01T00:35:41;8.07;;;5.73;;
15764;SDS011;7983;50.744;7.086;2023-03-01T00:38:07;6.77;;;4.80;;
15764;SDS011;7983;50.744;7.086;2023-03-01T00:40:34;7.70;;;4.73;;
15764;SDS011;7983;50.744;7.086;2023-03-01T00:43:02;5.80;;;4.27;;
15764;SDS011;7983;50.744;7.086;2023-03-01T00:45:32;7.07;;;4.60;;
15764;SDS011;7983;50.744;7.086;2023-03-01T00:47:57;6.07;;;4.20;;
15764;SDS011;7983;50.744;7.086;2023-03-01T00:50:23;5.93;;;4.13;;
15764;SDS011;7983;50.744;7.086;2023-03-01T00:52:53;5.47;;;3.80;;
15764;SDS011;7983;50.744;7.086;2023-03-01T00:55:20;4.87;;;3.83;;
15764;SDS011;7983;50.744;7.086;2023-03-01T00:57:46;5.33;;;3.83;;
15764;SDS011;7983;50.744;7.086;2023-03-01T01:00:11;5.27;;;3.60;;
15764;SDS011;7983;50.744;7.086;2023-03-01T01:02:37;5.90;;;4.07;;
15764;SDS011;7983;50.744;7.086;2023-03-01T01:05:08;4.57;;;3.67;;
15764;SDS011;7983;50.744;7.086;2023-03-01T01:07:38;5.23;;;4.03;;
15764;SDS011;7983;50.744;7.086;2023-03-01T01:10:04;5.30;;;3.57;;
15764;SDS011;7983;50.744;7.086;2023-03-01T01:12:33;5.87;;;3.97;;
15764;SDS011;7983;50.744;7.086;2023-03-01T01:14:59;4.93;;;3.73;;
15764;SDS011;7983;50.744;7.086;2023-03-01T01:17:24;5.07;;;3.40;;
15764;SDS011;7983;50.744;7.086;2023-03-01T01:19:50;5.97;;;3.63;;
15764;SDS011;7983;50.744;7.086;2023-03-01T01:22:18;5.07;;;3.40;;
15764;SDS011;7983;50.744;7.086;2023-03-01T01:24:43;4.97;;;3.60;;
15764;SDS011;7983;50.744;7.086;2023-03-01T01:27:13;6.40;;;4.23;;
15764;SDS011;7983;50.744;7.086;2023-03-01T01:29:44;5.20;;;4.00;;
15764;SDS011;7983;50.744;7.086;2023-03-01T01:32:11;5.77;;;4.03;;
15764;SDS011;7983;50.744;7.086;2023-03-01T01:34:39;5.23;;;4.20;;
15764;SDS011;7983;50.744;7.086;2023-03-01T01:37:07;5.50;;;4.00;;
15764;SDS011;7983;50.744;7.086;2023-03-01T01:39:35;4.90;;;3.80;;
15764;SDS011;7983;50.744;7.086;2023-03-01T01:42:01;5.87;;;3.40;;
15764;SDS011;7983;50.744;7.086;2023-03-01T01:44:27;4.60;;;3.47;;
15764;SDS011;7983;50.744;7.086;2023-03-01T01:54:40;3.13;;;2.80;;
15764;SDS011;7983;50.744;7.086;2023-03-01T01:57:10;3.90;;;3.17;;
15764;SDS011;7983;50.744;7.086;2023-03-01T01:59:43;3.97;;;3.00;;
15764;SDS011;7983;50.744;7.086;2023-03-01T02:02:12;4.37;;;3.30;;
15764;SDS011;7983;50.744;7.086;2023-03-01T02:04:38;8.23;;;4.37;;
15764;SDS011;7983;50.744;7.086;2023-03-01T02:07:06;5.80;;;4.03;;
15764;SDS011;7983;50.744;7.086;2023-03-01T02:09:43;6.00;;;4.50;;
15764;SDS011;7983;50.744;7.086;2023-03-01T02:12:12;7.17;;;4.60;;
15764;SDS011;7983;50.744;7.086;2023-03-01T02:14:43;6.57;;;4.33;;
15764;SDS011;7983;50.744;7.086;2023-03-01T02:17:09;5.07;;;3.93;;
15764;SDS011;7983;50.744;7.086;2023-03-01T02:19:42;5.87;;;4.50;;
15764;SDS011;7983;50.744;7.086;2023-03-01T02:22:22;6.50;;;4.50;;
15764;SDS011;7983;50.744;7.086;2023-03-01T02:27:54;5.23;;;3.50;;
15764;SDS011;7983;50.744;7.086;2023-03-01T02:30:35;4.57;;;3.50;;
15764;SDS011;7983;50.744;7.086;2023-03-01T02:33:01;4.23;;;3.20;;
15764;SDS011;7983;50.744;7.086;2023-03-01T02:35:29;4.30;;;3.20;;
15764;SDS011;7983;50.744;7.086;2023-03-01T02:38:02;4.33;;;3.40;;
15764;SDS011;7983;50.744;7.086;2023-03-01T02:40:31;3.50;;;2.73;;
15764;SDS011;7983;50.744;7.086;2023-03-01T02:42:59;5.13;;;3.40;;
15764;SDS011;7983;50.744;7.086;2023-03-01T02:45:25;4.17;;;3.10;;
15764;SDS011;7983;50.744;7.086;2023-03-01T02:47:55;4.03;;;3.03;;
15764;SDS011;7983;50.744;7.086;2023-03-01T02:56:00;5.07;;;3.67;;
15764;SDS011;7983;50.744;7.086;2023-03-01T02:58:30;4.83;;;3.73;;
15764;SDS011;7983;50.744;7.086;2023-03-01T03:00:56;4.77;;;3.50;;
15764;SDS011;7983;50.744;7.086;2023-03-01T03:03:22;5.10;;;3.60;;
15764;SDS011;7983;50.744;7.086;2023-03-01T03:05:48;5.07;;;3.70;;
15764;SDS011;7983;50.744;7.086;2023-03-01T03:08:13;4.70;;;3.50;;
15764;SDS011;7983;50.744;7.086;2023-03-01T03:10:48;4.03;;;2.83;;
15764;SDS011;7983;50.744;7.086;2023-03-01T03:13:16;5.70;;;4.30;;
15764;SDS011;7983;50.744;7.086;2023-03-01T03:15:43;4.17;;;3.30;;
15764;SDS011;7983;50.744;7.086;2023-03-01T03:18:13;5.93;;;3.90;;
15764;SDS011;7983;50.744;7.086;2023-03-01T03:20:42;6.83;;;3.73;;
15764;SDS011;7983;50.744;7.086;2023-03-01T03:23:11;5.50;;;3.90;;
15764;SDS011;7983;50.744;7.086;2023-03-01T03:25:37;6.57;;;4.07;;
15764;SDS011;7983;50.744;7.086;2023-03-01T03:28:05;5.00;;;3.60;;
15764;SDS011;7983;50.744;7.086;2023-03-01T03:30:35;5.57;;;4.20;;
15764;SDS011;7983;50.744;7.086;2023-03-01T03:33:04;5.03;;;3.87;;
15764;SDS011;7983;50.744;7.086;2023-03-01T03:35:32;5.50;;;3.17;;
15764;SDS011;7983;50.744;7.086;2023-03-01T03:38:04;5.30;;;3.77;;
15764;SDS011;7983;50.744;7.086;2023-03-01T03:43:11;5.27;;;3.97;;
15764;SDS011;7983;50.744;7.086;2023-03-01T03:45:41;5.10;;;3.50;;
15764;SDS011;7983;50.744;7.086;2023-03-01T03:48:14;6.67;;;3.93;;
15764;SDS011;7983;50.744;7.086;2023-03-01T03:50:40;4.70;;;3.33;;
15764;SDS011;7983;50.744;7.086;2023-03-01T03:53:10;5.47;;;3.37;;
15764;SDS011;7983;50.744;7.086;2023-03-01T03:55:39;4.57;;;3.40;;
15764;SDS011;7983;50.744;7.086;2023-03-01T03:58:07;5.00;;;3.57;;
15764;SDS011;7983;50.744;7.086;2023-03-01T04:00:44;5.00;;;3.73;;
15764;SDS011;7983;50.744;7.086;2023-03-01T04:03:15;5.73;;;3.97;;
15764;SDS011;7983;50.744;7.086;2023-03-01T04:05:47;4.67;;;3.27;;
15764;SDS011;7983;50.744;7.086;2023-03-01T04:08:15;4.83;;;3.30;;
15764;SDS011;7983;50.744;7.086;2023-03-01T04:10:45;4.73;;;3.50;;
15764;SDS011;7983;50.744;7.086;2023-03-01T04:13:16;5.40;;;3.40;;
15764;SDS011;7983;50.744;7.086;2023-03-01T04:15:47;5.63;;;3.70;;
15764;SDS011;7983;50.744;7.086;2023-03-01T04:18:16;3.90;;;3.20;;
15764;SDS011;7983;50.744;7.086;2023-03-01T04:20:43;3.97;;;3.30;;
15764;SDS011;7983;50.744;7.086;2023-03-01T04:23:15;5.03;;;3.70;;
15764;SDS011;7983;50.744;7.086;2023-03-01T04:25:57;5.07;;;3.60;;
15764;SDS011;7983;50.744;7.086;2023-03-01T04:28:25;5.40;;;3.27;;
15764;SDS011;7983;50.744;7.086;2023-03-01T04:30:54;4.30;;;3.13;;
15764;SDS011;7983;50.744;7.086;2023-03-01T04:33:21;4.00;;;3.37;;
15764;SDS011;7983;50.744;7.086;2023-03-01T04:35:48;10.03;;;4.63;;
15764;SDS011;7983;50.744;7.086;2023-03-01T04:38:17;6.73;;;5.00;;
15764;SDS011;7983;50.744;7.086;2023-03-01T04:40:44;7.80;;;5.30;;
15764;SDS011;7983;50.744;7.086;2023-03-01T04:43:10;6.33;;;4.87;;
15764;SDS011;7983;50.744;7.086;2023-03-01T04:45:39;5.30;;;4.30;;
15764;SDS011;7983;50.744;7.086;2023-03-01T04:48:05;6.33;;;4.40;;
15764;SDS011;7983;50.744;7.086;2023-03-01T04:50:31;5.30;;;4.00;;
15764;SDS011;7983;50.744;7.086;2023-03-01T04:52:56;6.27;;;4.10;;
15764;SDS011;7983;50.744;7.086;2023-03-01T04:55:23;5.03;;;3.73;;
15764;SDS011;7983;50.744;7.086;2023-03-01T04:57:52;5.30;;;3.60;;
15764;SDS011;7983;50.744;7.086;2023-03-01T05:00:21;6.20;;;3.77;;
15764;SDS011;7983;50.744;7.086;2023-03-01T05:02:48;6.13;;;4.40;;
15764;SDS011;7983;50.744;7.086;2023-03-01T05:05:26;4.97;;;3.73;;
15764;SDS011;7983;50.744;7.086;2023-03-01T05:08:01;5.43;;;3.70;;
15764;SDS011;7983;50.744;7.086;2023-03-01T05:10:31;6.47;;;4.13;;
15764;SDS011;7983;50.744;7.086;2023-03-01T05:13:00;5.23;;;3.90;;
15764;SDS011;7983;50.744;7.086;2023-03-01T05:15:28;5.63;;;3.70;;
15764;SDS011;7983;50.744;7.086;2023-03-01T05:17:58;4.83;;;3.50;;
15764;SDS011;7983;50.744;7.086;2023-03-01T05:20:29;5.60;;;4.10;;
15764;SDS011;7983;50.744;7.086;2023-03-01T05:22:56;4.80;;;3.43;;
15764;SDS011;7983;50.744;7.086;2023-03-01T05:25:24;5.53;;;3.80;;
15764;SDS011;7983;50.744;7.086;2023-03-01T05:27:50;4.73;;;3.57;;
15764;SDS011;7983;50.744;7.086;2023-03-01T05:30:18;7.50;;;3.90;;
15764;SDS011;7983;50.744;7.086;2023-03-01T05:32:45;5.47;;;3.87;;
15764;SDS011;7983;50.744;7.086;2023-03-01T05:35:14;5.10;;;3.87;;
15764;SDS011;7983;50.744;7.086;2023-03-01T05:37:42;6.77;;;4.63;;
15764;SDS011;7983;50.744;7.086;2023-03-01T05:40:10;5.70;;;4.13;;
15764;SDS011;7983;50.744;7.086;2023-03-01T05:42:41;5.43;;;4.00;;
15764;SDS011;7983;50.744;7.086;2023-03-01T05:45:11;6.17;;;4.27;;
15764;SDS011;7983;50.744;7.086;2023-03-01T05:47:40;6.87;;;5.03;;
15764;SDS011;7983;50.744;7.086;2023-03-01T05:50:08;9.20;;;4.97;;
15764;SDS011;7983;50.744;7.086;2023-03-01T05:52:39;6.50;;;4.77;;
15764;SDS011;7983;50.744;7.086;2023-03-01T05:55:05;7.40;;;4.60;;
15764;SDS011;7983;50.744;7.086;2023-03-01T05:57:31;6.37;;;4.60;;
15764;SDS011;7983;50.744;7.086;2023-03-01T05:59:59;8.33;;;5.07;;
15764;SDS011;7983;50.744;7.086;2023-03-01T06:02:25;9.20;;;5.77;;
15764;SDS011;7983;50.744;7.086;2023-03-01T06:04:54;6.20;;;4.47;;
15764;SDS011;7983;50.744;7.086;2023-03-01T06:07:20;8.20;;;5.30;;
15764;SDS011;7983;50.744;7.086;2023-03-01T06:09:47;6.97;;;4.47;;
15764;SDS011;7983;50.744;7.086;2023-03-01T06:12:13;6.57;;;4.87;;
15764;SDS011;7983;50.744;7.086;2023-03-01T06:14:38;6.70;;;4.43;;
15764;SDS011;7983;50.744;7.086;2023-03-01T06:17:04;7.07;;;4.60;;
15764;SDS011;7983;50.744;7.086;2023-03-01T06:19:32;6.00;;;4.03;;
15764;SDS011;7983;50.744;7.086;2023-03-01T06:22:00;6.20;;;3.60;;
15764;SDS011;7983;50.744;7.086;2023-03-01T06:24:26;6.77;;;3.70;;
15764;SDS011;7983;50.744;7.086;2023-03-01T06:26:53;4.73;;;3.50;;
15764;SDS011;7983;50.744;7.086;2023-03-01T06:29:19;5.60;;;4.07;;
15764;SDS011;7983;50.744;7.086;2023-03-01T06:31:47;5.90;;;4.23;;
15764;SDS011;7983;50.744;7.086;2023-03-01T06:34:15;5.63;;;3.97;;
15764;SDS011;7983;50.744;7.086;2023-03-01T06:36:41;5.50;;;3.90;;
15764;SDS011;7983;50.744;7.086;2023-03-01T06:39:07;5.53;;;4.00;;
15764;SDS011;7983;50.744;7.086;2023-03-01T06:41:32;4.57;;;3.60;;
15764;SDS011;7983;50.744;7.086;2023-03-01T06:44:03;5.70;;;3.70;;
15764;SDS011;7983;50.744;7.086;2023-03-01T06:46:29;5.17;;;3.83;;
15764;SDS011;7983;50.744;7.086;2023-03-01T06:48:55;6.17;;;4.00;;
15764;SDS011;7983;50.744;7.086;2023-03-01T06:51:20;4.70;;;3.40;;
15764;SDS011;7983;50.744;7.086;2023-03-01T06:53:46;8.33;;;4.13;;
15764;SDS011;7983;50.744;7.086;2023-03-01T06:56:12;5.90;;;3.97;;
15764;SDS011;7983;50.744;7.086;2023-03-01T06:58:40;5.73;;;3.47;;
15764;SDS011;7983;50.744;7.086;2023-03-01T07:01:08;5.63;;;3.60;;
15764;SDS011;7983;50.744;7.086;2023-03-01T07:03:34;5.13;;;3.50;;
15764;SDS011;7983;50.744;7.086;2023-03-01T07:06:00;4.80;;;3.60;;
15764;SDS011;7983;50.744;7.086;2023-03-01T07:08:28;4.70;;;3.20;;
15764;SDS011;7983;50.744;7.086;2023-03-01T07:11:00;6.03;;;3.40;;
15764;SDS011;7983;50.744;7.086;2023-03-01T07:13:31;6.67;;;3.73;;
15764;SDS011;7983;50.744;7.086;2023-03-01T07:15:56;5.60;;;3.63;;
15764;SDS011;7983;50.744;7.086;2023-03-01T07:18:22;4.80;;;3.50;;
15764;SDS011;7983;50.744;7.086;2023-03-01T07:20:50;5.23;;;3.83;;
15764;SDS011;7983;50.744;7.086;2023-03-01T07:23:18;6.23;;;3.57;;
15764;SDS011;7983;50.744;7.086;2023-03-01T07:25:44;5.27;;;3.83;;
15764;SDS011;7983;50.744;7.086;2023-03-01T07:28:15;7.90;;;3.77;;
15764;SDS011;7983;50.744;7.086;2023-03-01T07:30:41;4.93;;;3.63;;
15764;SDS011;7983;50.744;7.086;2023-03-01T07:33:09;7.33;;;4.60;;
15764;SDS011;7983;50.744;7.086;2023-03-01T07:35:35;6.47;;;4.43;;
15764;SDS011;7983;50.744;7.086;2023-03-01T07:38:00;7.73;;;4.73;;
15764;SDS011;7983;50.744;7.086;2023-03-01T07:40:26;5.83;;;3.97;;
15764;SDS011;7983;50.744;7.086;2023-03-01T07:42:55;5.87;;;4.40;;
15764;SDS011;7983;50.744;7.086;2023-03-01T07:45:24;4.73;;;3.80;;
15764;SDS011;7983;50.744;7.086;2023-03-01T07:47:53;5.83;;;4.07;;
15764;SDS011;7983;50.744;7.086;2023-03-01T07:50:22;6.00;;;3.80;;
15764;SDS011;7983;50.744;7.086;2023-03-01T07:52:50;5.80;;;4.03;;
15764;SDS011;7983;50.744;7.086;2023-03-01T07:55:16;7.13;;;3.90;;
15764;SDS011;7983;50.744;7.086;2023-03-01T07:57:41;5.27;;;4.03;;
15764;SDS011;7983;50.744;7.086;2023-03-01T08:00:09;5.33;;;3.83;;
15764;SDS011;7983;50.744;7.086;2023-03-01T08:02:37;5.70;;;4.00;;
15764;SDS011;7983;50.744;7.086;2023-03-01T08:05:23;5.23;;;3.80;;
15764;SDS011;7983;50.744;7.086;2023-03-01T08:07:48;5.17;;;4.00;;
15764;SDS011;7983;50.744;7.086;2023-03-01T08:10:14;6.67;;;5.10;;
15764;SDS011;7983;50.744;7.086;2023-03-01T08:12:40;5.47;;;4.13;;
15764;SDS011;7983;50.744;7.086;2023-03-01T08:15:06;6.83;;;4.67;;
15764;SDS011;7983;50.744;7.086;2023-03-01T08:17:32;6.37;;;4.43;;
15764;SDS011;7983;50.744;7.086;2023-03-01T08:19:58;5.40;;;3.93;;
15764;SDS011;7983;50.744;7.086;2023-03-01T08:22:23;8.03;;;5.33;;
15764;SDS011;7983;50.744;7.086;2023-03-01T08:24:54;6.77;;;4.70;;
15764;SDS011;7983;50.744;7.086;2023-03-01T08:27:20;7.63;;;5.37;;
15764;SDS011;7983;50.744;7.086;2023-03-01T08:29:49;7.00;;;4.80;;
15764;SDS011;7983;50.744;7.086;2023-03-01T08:32:14;8.70;;;5.10;;
15764;SDS011;7983;50.744;7.086;2023-03-01T08:34:42;6.10;;;5.47;;
15764;SDS011;7983;50.744;7.086;2023-03-01T08:37:14;8.33;;;5.93;;
15764;SDS011;7983;50.744;7.086;2023-03-01T08:39:39;7.53;;;5.33;;
15764;SDS011;7983;50.744;7.086;2023-03-01T08:42:05;6.33;;;4.73;;
15764;SDS011;7983;50.744;7.086;2023-03-01T08:44:30;7.83;;;5.60;;
15764;SDS011;7983;50.744;7.086;2023-03-01T08:46:59;7.80;;;6.10;;
15764;SDS011;7983;50.744;7.086;2023-03-01T08:49:27;9.30;;;6.60;;
15764;SDS011;7983;50.744;7.086;2023-03-01T08:51:52;8.27;;;6.40;;
15764;SDS011;7983;50.744;7.086;2023-03-01T08:54:20;8.47;;;6.00;;
15764;SDS011;7983;50.744;7.086;2023-03-01T08:56:48;8.47;;;6.17;;
15764;SDS011;7983;50.744;7.086;2023-03-01T08:59:17;7.80;;;6.33;;
15764;SDS011;7983;50.744;7.086;2023-03-01T09:01:43;9.07;;;6.63;;
15764;SDS011;7983;50.744;7.086;2023-03-01T09:04:09;7.57;;;6.20;;
15764;SDS011;7983;50.744;7.086;2023-03-01T09:06:39;8.67;;;6.30;;
15764;SDS011;7983;50.744;7.086;2023-03-01T09:09:05;8.93;;;6.50;;
15764;SDS011;7983;50.744;7.086;2023-03-01T09:11:31;8.57;;;6.17;;
15764;SDS011;7983;50.744;7.086;2023-03-01T09:13:58;8.73;;;6.20;;
15764;SDS011;7983;50.744;7.086;2023-03-01T09:16:26;8.73;;;6.53;;
15764;SDS011;7983;50.744;7.086;2023-03-01T09:18:52;8.50;;;6.43;;
15764;SDS011;7983;50.744;7.086;2023-03-01T09:21:19;7.07;;;6.03;;
15764;SDS011;7983;50.744;7.086;2023-03-01T09:23:51;8.80;;;6.17;;
15764;SDS011;7983;50.744;7.086;2023-03-01T09:26:19;7.20;;;6.07;;
15764;SDS011;7983;50.744;7.086;2023-03-01T09:28:49;8.37;;;6.00;;
15764;SDS011;7983;50.744;7.086;2023-03-01T09:31:19;8.57;;;6.63;;
15764;SDS011;7983;50.744;7.086;2023-03-01T09:33:49;10.27;;;7.53;;
15764;SDS011;7983;50.744;7.086;2023-03-01T09:36:21;8.70;;;7.00;;
15764;SDS011;7983;50.744;7.086;2023-03-01T09:38:51;8.43;;;7.00;;
15764;SDS011;7983;50.744;7.086;2023-03-01T09:44:40;10.20;;;7.60;;
15764;SDS011;7983;50.744;7.086;2023-03-01T09:47:34;9.10;;;7.50;;
15764;SDS011;7983;50.744;7.086;2023-03-01T09:50:15;8.83;;;6.53;;
15764;SDS011;7983;50.744;7.086;2023-03-01T09:55:20;9.30;;;7.37;;
15764;SDS011;7983;50.744;7.086;2023-03-01T09:57:59;8.07;;;6.43;;
15764;SDS011;7983;50.744;7.086;2023-03-01T10:00:46;7.63;;;6.13;;
15764;SDS011;7983;50.744;7.086;2023-03-01T10:08:55;8.00;;;6.37;;
15764;SDS011;7983;50.744;7.086;2023-03-01T10:11:28;7.87;;;6.73;;
15764;SDS011;7983;50.744;7.086;2023-03-01T10:14:07;8.50;;;6.60;;
15764;SDS011;7983;50.744;7.086;2023-03-01T10:16:48;8.27;;;6.30;;
15764;SDS011;7983;50.744;7.086;2023-03-01T10:19:41;7.17;;;5.87;;
15764;SDS011;7983;50.744;7.086;2023-03-01T10:22:25;7.23;;;6.17;;
15764;SDS011;7983;50.744;7.086;2023-03-01T10:24:53;6.50;;;5.50;;
15764;SDS011;7983;50.744;7.086;2023-03-01T10:27:37;7.90;;;5.87;;
15764;SDS011;7983;50.744;7.086;2023-03-01T10:32:32;8.43;;;6.60;;
15764;SDS011;7983;50.744;7.086;2023-03-01T10:34:58;7.90;;;6.67;;
15764;SDS011;7983;50.744;7.086;2023-03-01T10:37:24;7.37;;;5.80;;
15764;SDS011;7983;50.744;7.086;2023-03-01T10:40:05;7.87;;;6.17;;
15764;SDS011;7983;50.744;7.086;2023-03-01T10:42:45;7.20;;;6.00;;
15764;SDS011;7983;50.744;7.086;2023-03-01T10:45:22;7.95;;;5.50;;
15764;SDS011;7983;50.744;7.086;2023-03-01T10:50:36;9.63;;;7.55;;
15764;SDS011;7983;50.744;7.086;2023-03-01T10:53:04;8.35;;;6.68;;
15764;SDS011;7983;50.744;7.086;2023-03-01T10:55:41;6.88;;;5.82;;
15764;SDS011;7983;50.744;7.086;2023-03-01T11:03:16;6.87;;;5.83;;
15764;SDS011;7983;50.744;7.086;2023-03-01T11:08:56;6.82;;;5.93;;
15764;SDS011;7983;50.744;7.086;2023-03-01T11:14:54;8.07;;;5.43;;
15764;SDS011;7983;50.744;7.086;2023-03-01T11:17:02;6.13;;;5.15;;
15764;SDS011;7983;50.744;7.086;2023-03-01T11:19:32;6.78;;;5.20;;
15764;SDS011;7983;50.744;7.086;2023-03-01T11:22:07;6.35;;;5.00;;
15764;SDS011;7983;50.744;7.086;2023-03-01T11:24:43;7.82;;;5.78;;
15764;SDS011;7983;50.744;7.086;2023-03-01T11:29:54;7.50;;;5.40;;
15764;SDS011;7983;50.744;7.086;2023-03-01T11:32:32;6.25;;;5.35;;
15764;SDS011;7983;50.744;7.086;2023-03-01T11:35:26;7.65;;;6.00;;
15764;SDS011;7983;50.744;7.086;2023-03-01T11:40:50;6.20;;;5.28;;
15764;SDS011;7983;50.744;7.086;2023-03-01T11:43:40;6.30;;;5.30;;
15764;SDS011;7983;50.744;7.086;2023-03-01T12:06:29;6.03;;;4.75;;
15764;SDS011;7983;50.744;7.086;2023-03-01T12:09:04;6.97;;;5.28;;
15764;SDS011;7983;50.744;7.086;2023-03-01T12:12:16;6.85;;;5.30;;
15764;SDS011;7983;50.744;7.086;2023-03-01T12:18:02;6.55;;;4.60;;
15764;SDS011;7983;50.744;7.086;2023-03-01T12:20:41;6.10;;;5.05;;
15764;SDS011;7983;50.744;7.086;2023-03-01T12:23:15;7.05;;;5.05;;
15764;SDS011;7983;50.744;7.086;2023-03-01T12:37:03;6.28;;;5.15;;
15764;SDS011;7983;50.744;7.086;2023-03-01T12:50:50;6.07;;;4.53;;
15764;SDS011;7983;50.744;7.086;2023-03-01T12:53:23;5.85;;;5.10;;
15764;SDS011;7983;50.744;7.086;2023-03-01T12:56:01;7.68;;;5.45;;
15764;SDS011;7983;50.744;7.086;2023-03-01T13:13:00;5.68;;;4.97;;
15764;SDS011;7983;50.744;7.086;2023-03-01T13:20:29;7.18;;;5.40;;
15764;SDS011;7983;50.744;7.086;2023-03-01T13:33:49;5.53;;;3.85;;
15764;SDS011;7983;50.744;7.086;2023-03-01T13:44:26;5.45;;;4.03;;
15764;SDS011;7983;50.744;7.086;2023-03-01T13:49:26;5.00;;;4.15;;
15764;SDS011;7983;50.744;7.086;2023-03-01T13:51:56;6.72;;;4.70;;
15764;SDS011;7983;50.744;7.086;2023-03-01T13:54:25;5.35;;;4.03;;
15764;SDS011;7983;50.744;7.086;2023-03-01T13:56:54;5.50;;;4.20;;
15764;SDS011;7983;50.744;7.086;2023-03-01T13:59:23;5.78;;;4.38;;
15764;SDS011;7983;50.744;7.086;2023-03-01T14:01:52;8.15;;;4.63;;
15764;SDS011;7983;50.744;7.086;2023-03-01T14:04:23;5.57;;;4.35;;
15764;SDS011;7983;50.744;7.086;2023-03-01T14:06:50;5.40;;;3.95;;
15764;SDS011;7983;50.744;7.086;2023-03-01T14:09:23;5.22;;;4.35;;
15764;SDS011;7983;50.744;7.086;2023-03-01T14:15:33;6.15;;;4.40;;
15764;SDS011;7983;50.744;7.086;2023-03-01T14:18:24;5.53;;;4.03;;
15764;SDS011;7983;50.744;7.086;2023-03-01T14:21:00;4.70;;;3.72;;
15764;SDS011;7983;50.744;7.086;2023-03-01T14:23:34;4.57;;;3.60;;
15764;SDS011;7983;50.744;7.086;2023-03-01T14:26:01;4.10;;;3.22;;
15764;SDS011;7983;50.744;7.086;2023-03-01T14:28:27;4.80;;;3.60;;
15764;SDS011;7983;50.744;7.086;2023-03-01T14:31:01;4.75;;;3.60;;
15764;SDS011;7983;50.744;7.086;2023-03-01T14:33:31;6.28;;;3.60;;
15764;SDS011;7983;50.744;7.086;2023-03-01T14:38:32;4.75;;;3.50;;
15764;SDS011;7983;50.744;7.086;2023-03-01T14:41:05;4.13;;;3.30;;
15764;SDS011;7983;50.744;7.086;2023-03-01T14:43:36;4.70;;;3.47;;
15764;SDS011;7983;50.744;7.086;2023-03-01T14:46:16;4.00;;;3.38;;
15764;SDS011;7983;50.744;7.086;2023-03-01T14:48:53;4.03;;;3.10;;
15764;SDS011;7983;50.744;7.086;2023-03-01T14:51:26;5.00;;;3.10;;
15764;SDS011;7983;50.744;7.086;2023-03-01T14:53:54;4.43;;;3.30;;
15764;SDS011;7983;50.744;7.086;2023-03-01T14:56:21;4.60;;;3.53;;
15764;SDS011;7983;50.744;7.086;2023-03-01T14:58:57;5.05;;;3.60;;
15764;SDS011;7983;50.744;7.086;2023-03-01T15:01:24;4.50;;;3.38;;
15764;SDS011;7983;50.744;7.086;2023-03-01T15:03:50;4.00;;;3.53;;
15764;SDS011;7983;50.744;7.086;2023-03-01T15:06:22;3.95;;;3.22;;
15764;SDS011;7983;50.744;7.086;2023-03-01T15:08:50;4.97;;;3.00;;
15764;SDS011;7983;50.744;7.086;2023-03-01T15:11:21;6.47;;;4.10;;
15764;SDS011;7983;50.744;7.086;2023-03-01T15:13:49;7.78;;;4.35;;
15764;SDS011;7983;50.744;7.086;2023-03-01T15:18:45;5.85;;;4.75;;
15764;SDS011;7983;50.744;7.086;2023-03-01T15:23:41;5.80;;;4.07;;
15764;SDS011;7983;50.744;7.086;2023-03-01T15:26:16;4.88;;;3.78;;
15764;SDS011;7983;50.744;7.086;2023-03-01T15:29:00;5.63;;;4.05;;
15764;SDS011;7983;50.744;7.086;2023-03-01T15:31:36;5.45;;;3.85;;
15764;SDS011;7983;50.744;7.086;2023-03-01T15:34:07;5.50;;;4.10;;
15764;SDS011;7983;50.744;7.086;2023-03-01T15:36:54;5.35;;;4.10;;
15764;SDS011;7983;50.744;7.086;2023-03-01T15:39:33;6.70;;;4.10;;
15764;SDS011;7983;50.744;7.086;2023-03-01T15:42:06;4.72;;;3.47;;
15764;SDS011;7983;50.744;7.086;2023-03-01T15:44:37;5.47;;;3.65;;
15764;SDS011;7983;50.744;7.086;2023-03-01T15:47:20;3.90;;;3.03;;
15764;SDS011;7983;50.744;7.086;2023-03-01T15:49:57;3.65;;;2.70;;
15764;SDS011;7983;50.744;7.086;2023-03-01T15:52:35;3.30;;;2.60;;
15764;SDS011;7983;50.744;7.086;2023-03-01T15:55:05;3.03;;;2.55;;
15764;SDS011;7983;50.744;7.086;2023-03-01T15:57:41;3.78;;;2.75;;
15764;SDS011;7983;50.744;7.086;2023-03-01T16:00:09;4.50;;;3.25;;
15764;SDS011;7983;50.744;7.086;2023-03-01T16:02:39;5.57;;;3.72;;
15764;SDS011;7983;50.744;7.086;2023-03-01T16:05:09;4.63;;;3.72;;
15764;SDS011;7983;50.744;7.086;2023-03-01T16:07:47;7.05;;;4.22;;
15764;SDS011;7983;50.744;7.086;2023-03-01T16:10:12;6.40;;;3.70;;
15764;SDS011;7983;50.744;7.086;2023-03-01T16:12:38;4.88;;;3.75;;
15764;SDS011;7983;50.744;7.086;2023-03-01T16:17:54;6.50;;;3.92;;
15764;SDS011;7983;50.744;7.086;2023-03-01T16:20:23;5.38;;;3.80;;
15764;SDS011;7983;50.744;7.086;2023-03-01T16:22:52;6.53;;;3.60;;
15764;SDS011;7983;50.744;7.086;2023-03-01T16:25:18;4.93;;;3.60;;
15764;SDS011;7983;50.744;7.086;2023-03-01T16:27:46;4.85;;;3.67;;
15764;SDS011;7983;50.744;7.086;2023-03-01T16:30:15;4.85;;;3.85;;
15764;SDS011;7983;50.744;7.086;2023-03-01T16:32:43;5.35;;;3.85;;
15764;SDS011;7983;50.744;7.086;2023-03-01T16:35:11;4.80;;;3.53;;
15764;SDS011;7983;50.744;7.086;2023-03-01T16:37:39;6.05;;;3.45;;
15764;SDS011;7983;50.744;7.086;2023-03-01T16:40:14;6.30;;;4.13;;
15764;SDS011;7983;50.744;7.086;2023-03-01T16:42:45;7.35;;;4.00;;
15764;SDS011;7983;50.744;7.086;2023-03-01T16:45:17;4.70;;;3.60;;
15764;SDS011;7983;50.744;7.086;2023-03-01T16:47:43;4.63;;;3.45;;
15764;SDS011;7983;50.744;7.086;2023-03-01T16:50:09;5.35;;;3.67;;
15764;SDS011;7983;50.744;7.086;2023-03-01T16:52:35;4.88;;;3.20;;
15764;SDS011;7983;50.744;7.086;2023-03-01T16:55:03;4.55;;;3.08;;
15764;SDS011;7983;50.744;7.086;2023-03-01T16:57:33;4.20;;;3.20;;
15764;SDS011;7983;50.744;7.086;2023-03-01T16:59:59;4.13;;;2.85;;
15764;SDS011;7983;50.744;7.086;2023-03-01T17:02:32;3.92;;;3.17;;
15764;SDS011;7983;50.744;7.086;2023-03-01T17:05:01;3.67;;;2.85;;
15764;SDS011;7983;50.744;7.086;2023-03-01T17:07:28;3.65;;;2.80;;
15764;SDS011;7983;50.744;7.086;2023-03-01T17:09:58;3.55;;;2.70;;
15764;SDS011;7983;50.744;7.086;2023-03-01T17:12:25;5.95;;;3.20;;
15764;SDS011;7983;50.744;7.086;2023-03-01T17:14:50;4.53;;;3.00;;
15764;SDS011;7983;50.744;7.086;2023-03-01T17:17:19;5.27;;;3.07;;
15764;SDS011;7983;50.744;7.086;2023-03-01T17:19:44;3.80;;;2.60;;
15764;SDS011;7983;50.744;7.086;2023-03-01T17:22:12;4.40;;;3.20;;
15764;SDS011;7983;50.744;7.086;2023-03-01T17:24:42;4.07;;;2.60;;
15764;SDS011;7983;50.744;7.086;2023-03-01T17:27:08;4.00;;;2.97;;
15764;SDS011;7983;50.744;7.086;2023-03-01T17:29:37;3.63;;;2.77;;
15764;SDS011;7983;50.744;7.086;2023-03-01T17:32:06;4.40;;;3.00;;
15764;SDS011;7983;50.744;7.086;2023-03-01T17:34:33;3.90;;;2.50;;
15764;SDS011;7983;50.744;7.086;2023-03-01T17:36:58;4.10;;;2.87;;
15764;SDS011;7983;50.744;7.086;2023-03-01T17:39:27;4.30;;;3.10;;
15764;SDS011;7983;50.744;7.086;2023-03-01T17:41:59;5.03;;;2.90;;
15764;SDS011;7983;50.744;7.086;2023-03-01T17:44:26;7.83;;;5.37;;
15764;SDS011;7983;50.744;7.086;2023-03-01T17:46:52;8.93;;;5.20;;
15764;SDS011;7983;50.744;7.086;2023-03-01T17:49:17;5.77;;;4.03;;